sensor_id;sensor_type;location;lat;lon;timestamp;P1;durP1;ratioP1;P2;durP2;ratioP2
71095;SDS011;58753;49.440;11.126;2022-12-20T00:01:12;32.85;;;13.52;;
71095;SDS011;58753;49.440;11.126;2022-12-20T00:03:42;29.90;;;13.88;;
71095;SDS011;58753;49.440;11.126;2022-12-20T00:06:08;26.70;;;13.10;;
71095;SDS011;58753;49.440;11.126;2022-12-20T00:08:35;28.45;;;12.77;;
71095;SDS011;58753;49.440;11.126;2022-12-20T00:11:01;29.13;;;12.68;;
71095;SDS011;58753;49.440;11.126;2022-12-20T00:13:29;27.50;;;12.23;;
71095;SDS011;58753;49.440;11.126;2022-12-20T00:16:11;29.98;;;12.15;;
71095;SDS011;58753;49.440;11.126;2022-12-20T00:18:39;30.57;;;13.97;;
71095;SDS011;58753;49.440;11.126;2022-12-20T00:21:06;32.78;;;13.18;;
71095;SDS011;58753;49.440;11.126;2022-12-20T00:23:33;28.60;;;13.20;;
71095;SDS011;58753;49.440;11.126;2022-12-20T00:26:00;31.30;;;12.68;;
71095;SDS011;58753;49.440;11.126;2022-12-20T00:28:26;28.08;;;13.35;;
71095;SDS011;58753;49.440;11.126;2022-12-20T00:30:52;26.80;;;13.13;;
71095;SDS011;58753;49.440;11.126;2022-12-20T00:33:18;29.40;;;13.07;;
71095;SDS011;58753;49.440;11.126;2022-12-20T00:35:43;32.77;;;13.07;;
71095;SDS011;58753;49.440;11.126;2022-12-20T00:38:09;29.30;;;14.37;;
71095;SDS011;58753;49.440;11.126;2022-12-20T00:40:34;29.50;;;13.23;;
71095;SDS011;58753;49.440;11.126;2022-12-20T00:42:59;32.13;;;12.93;;
71095;SDS011;58753;49.440;11.126;2022-12-20T00:45:25;31.40;;;14.03;;
71095;SDS011;58753;49.440;11.126;2022-12-20T00:47:50;26.57;;;12.83;;
71095;SDS011;58753;49.440;11.126;2022-12-20T00:50:15;33.47;;;13.00;;
71095;SDS011;58753;49.440;11.126;2022-12-20T00:52:41;30.87;;;12.77;;
71095;SDS011;58753;49.440;11.126;2022-12-20T00:55:06;30.63;;;13.10;;
71095;SDS011;58753;49.440;11.126;2022-12-20T00:57:32;28.88;;;12.98;;
71095;SDS011;58753;49.440;11.126;2022-12-20T00:59:57;33.03;;;12.67;;
71095;SDS011;58753;49.440;11.126;2022-12-20T01:02:22;28.63;;;13.43;;
71095;SDS011;58753;49.440;11.126;2022-12-20T01:04:48;29.90;;;13.70;;
71095;SDS011;58753;49.440;11.126;2022-12-20T01:07:14;26.45;;;13.18;;
71095;SDS011;58753;49.440;11.126;2022-12-20T01:09:39;32.13;;;13.67;;
71095;SDS011;58753;49.440;11.126;2022-12-20T01:12:05;24.53;;;12.07;;
71095;SDS011;58753;49.440;11.126;2022-12-20T01:14:30;28.25;;;13.10;;
71095;SDS011;58753;49.440;11.126;2022-12-20T01:16:55;27.80;;;14.27;;
71095;SDS011;58753;49.440;11.126;2022-12-20T01:19:21;29.03;;;12.87;;
71095;SDS011;58753;49.440;11.126;2022-12-20T01:21:46;31.87;;;13.57;;
71095;SDS011;58753;49.440;11.126;2022-12-20T01:24:16;28.98;;;12.77;;
71095;SDS011;58753;49.440;11.126;2022-12-20T01:26:42;25.77;;;11.93;;
71095;SDS011;58753;49.440;11.126;2022-12-20T01:29:09;28.27;;;13.32;;
71095;SDS011;58753;49.440;11.126;2022-12-20T01:31:34;26.45;;;13.15;;
71095;SDS011;58753;49.440;11.126;2022-12-20T01:34:00;26.53;;;12.47;;
71095;SDS011;58753;49.440;11.126;2022-12-20T01:36:27;29.53;;;12.77;;
71095;SDS011;58753;49.440;11.126;2022-12-20T01:38:57;28.85;;;12.90;;
71095;SDS011;58753;49.440;11.126;2022-12-20T01:41:34;30.75;;;13.43;;
71095;SDS011;58753;49.440;11.126;2022-12-20T01:44:04;26.27;;;13.23;;
71095;SDS011;58753;49.440;11.126;2022-12-20T01:46:50;28.25;;;12.43;;
71095;SDS011;58753;49.440;11.126;2022-12-20T01:54:30;28.92;;;13.07;;
71095;SDS011;58753;49.440;11.126;2022-12-20T01:57:00;29.80;;;11.57;;
71095;SDS011;58753;49.440;11.126;2022-12-20T01:59:28;27.27;;;12.60;;
71095;SDS011;58753;49.440;11.126;2022-12-20T02:01:58;32.83;;;13.00;;
71095;SDS011;58753;49.440;11.126;2022-12-20T02:04:28;28.55;;;12.65;;
71095;SDS011;58753;49.440;11.126;2022-12-20T02:06:54;27.33;;;12.63;;
71095;SDS011;58753;49.440;11.126;2022-12-20T02:09:20;30.60;;;14.32;;
71095;SDS011;58753;49.440;11.126;2022-12-20T02:17:19;27.13;;;13.27;;
71095;SDS011;58753;49.440;11.126;2022-12-20T02:20:00;33.90;;;14.38;;
71095;SDS011;58753;49.440;11.126;2022-12-20T02:28:49;31.93;;;12.70;;
71095;SDS011;58753;49.440;11.126;2022-12-20T02:31:42;33.22;;;13.27;;
71095;SDS011;58753;49.440;11.126;2022-12-20T02:34:14;28.13;;;12.10;;
71095;SDS011;58753;49.440;11.126;2022-12-20T02:36:41;29.15;;;12.55;;
71095;SDS011;58753;49.440;11.126;2022-12-20T02:39:07;29.73;;;11.77;;
71095;SDS011;58753;49.440;11.126;2022-12-20T02:41:37;29.70;;;12.98;;
71095;SDS011;58753;49.440;11.126;2022-12-20T02:44:10;32.05;;;13.60;;
71095;SDS011;58753;49.440;11.126;2022-12-20T02:46:59;31.33;;;12.77;;
71095;SDS011;58753;49.440;11.126;2022-12-20T02:49:27;28.25;;;12.27;;
71095;SDS011;58753;49.440;11.126;2022-12-20T02:51:55;32.92;;;13.63;;
71095;SDS011;58753;49.440;11.126;2022-12-20T02:54:22;32.85;;;12.73;;
71095;SDS011;58753;49.440;11.126;2022-12-20T02:56:55;35.08;;;13.65;;
71095;SDS011;58753;49.440;11.126;2022-12-20T02:59:26;29.17;;;13.00;;
71095;SDS011;58753;49.440;11.126;2022-12-20T03:01:56;31.38;;;13.48;;
71095;SDS011;58753;49.440;11.126;2022-12-20T03:04:23;29.33;;;12.90;;
71095;SDS011;58753;49.440;11.126;2022-12-20T03:07:01;28.85;;;13.65;;
71095;SDS011;58753;49.440;11.126;2022-12-20T03:09:29;30.65;;;13.50;;
71095;SDS011;58753;49.440;11.126;2022-12-20T03:11:56;29.50;;;12.40;;
71095;SDS011;58753;49.440;11.126;2022-12-20T03:14:21;29.45;;;13.15;;
71095;SDS011;58753;49.440;11.126;2022-12-20T03:16:47;31.20;;;13.63;;
71095;SDS011;58753;49.440;11.126;2022-12-20T03:19:13;26.87;;;12.90;;
71095;SDS011;58753;49.440;11.126;2022-12-20T03:21:38;33.90;;;14.27;;
71095;SDS011;58753;49.440;11.126;2022-12-20T03:24:04;35.85;;;14.52;;
71095;SDS011;58753;49.440;11.126;2022-12-20T03:26:29;30.50;;;13.73;;
71095;SDS011;58753;49.440;11.126;2022-12-20T03:28:55;30.17;;;14.63;;
71095;SDS011;58753;49.440;11.126;2022-12-20T03:31:20;34.87;;;14.27;;
71095;SDS011;58753;49.440;11.126;2022-12-20T03:33:46;29.40;;;13.83;;
71095;SDS011;58753;49.440;11.126;2022-12-20T03:36:11;28.57;;;14.33;;
71095;SDS011;58753;49.440;11.126;2022-12-20T03:38:37;29.33;;;12.87;;
71095;SDS011;58753;49.440;11.126;2022-12-20T03:41:02;30.53;;;14.23;;
71095;SDS011;58753;49.440;11.126;2022-12-20T03:43:28;32.83;;;14.17;;
71095;SDS011;58753;49.440;11.126;2022-12-20T03:45:53;33.97;;;14.57;;
71095;SDS011;58753;49.440;11.126;2022-12-20T03:48:18;31.27;;;13.82;;
71095;SDS011;58753;49.440;11.126;2022-12-20T03:50:44;28.77;;;13.30;;
71095;SDS011;58753;49.440;11.126;2022-12-20T03:53:09;33.43;;;14.57;;
71095;SDS011;58753;49.440;11.126;2022-12-20T03:55:34;28.00;;;12.40;;
71095;SDS011;58753;49.440;11.126;2022-12-20T03:58:00;30.90;;;14.38;;
71095;SDS011;58753;49.440;11.126;2022-12-20T04:00:26;32.37;;;13.33;;
71095;SDS011;58753;49.440;11.126;2022-12-20T04:02:51;31.43;;;13.87;;
71095;SDS011;58753;49.440;11.126;2022-12-20T04:05:16;35.97;;;14.70;;
71095;SDS011;58753;49.440;11.126;2022-12-20T04:07:42;29.35;;;13.25;;
71095;SDS011;58753;49.440;11.126;2022-12-20T04:10:09;28.30;;;13.95;;
71095;SDS011;58753;49.440;11.126;2022-12-20T04:12:35;26.93;;;14.17;;
71095;SDS011;58753;49.440;11.126;2022-12-20T04:15:00;29.83;;;12.97;;
71095;SDS011;58753;49.440;11.126;2022-12-20T04:17:26;26.50;;;13.47;;
71095;SDS011;58753;49.440;11.126;2022-12-20T04:19:51;25.83;;;12.10;;
71095;SDS011;58753;49.440;11.126;2022-12-20T04:22:16;34.17;;;13.80;;
71095;SDS011;58753;49.440;11.126;2022-12-20T04:24:42;26.35;;;12.15;;
71095;SDS011;58753;49.440;11.126;2022-12-20T04:27:07;23.83;;;11.17;;
71095;SDS011;58753;49.440;11.126;2022-12-20T04:29:32;23.93;;;11.13;;
71095;SDS011;58753;49.440;11.126;2022-12-20T04:31:58;26.10;;;12.23;;
71095;SDS011;58753;49.440;11.126;2022-12-20T04:34:24;28.03;;;12.63;;
71095;SDS011;58753;49.440;11.126;2022-12-20T04:36:49;29.57;;;13.53;;
71095;SDS011;58753;49.440;11.126;2022-12-20T04:39:14;25.80;;;12.37;;
71095;SDS011;58753;49.440;11.126;2022-12-20T04:41:40;28.85;;;13.02;;
71095;SDS011;58753;49.440;11.126;2022-12-20T04:44:05;28.73;;;14.17;;
71095;SDS011;58753;49.440;11.126;2022-12-20T04:46:31;26.30;;;13.27;;
71095;SDS011;58753;49.440;11.126;2022-12-20T04:48:56;32.53;;;14.70;;
71095;SDS011;58753;49.440;11.126;2022-12-20T04:51:22;28.58;;;13.30;;
71095;SDS011;58753;49.440;11.126;2022-12-20T04:53:47;31.80;;;12.87;;
71095;SDS011;58753;49.440;11.126;2022-12-20T04:56:13;29.97;;;13.10;;
71095;SDS011;58753;49.440;11.126;2022-12-20T04:58:40;31.17;;;14.45;;
71095;SDS011;58753;49.440;11.126;2022-12-20T05:01:06;29.23;;;13.80;;
71095;SDS011;58753;49.440;11.126;2022-12-20T05:03:31;30.65;;;13.95;;
71095;SDS011;58753;49.440;11.126;2022-12-20T05:05:56;31.53;;;14.03;;
71095;SDS011;58753;49.440;11.126;2022-12-20T05:08:22;36.03;;;13.90;;
71095;SDS011;58753;49.440;11.126;2022-12-20T05:10:48;33.67;;;14.05;;
71095;SDS011;58753;49.440;11.126;2022-12-20T05:13:13;30.90;;;13.17;;
71095;SDS011;58753;49.440;11.126;2022-12-20T05:15:38;32.40;;;14.10;;
71095;SDS011;58753;49.440;11.126;2022-12-20T05:18:04;30.43;;;13.60;;
71095;SDS011;58753;49.440;11.126;2022-12-20T05:20:29;30.05;;;14.65;;
71095;SDS011;58753;49.440;11.126;2022-12-20T05:22:55;28.48;;;12.98;;
71095;SDS011;58753;49.440;11.126;2022-12-20T05:25:41;28.77;;;12.77;;
71095;SDS011;58753;49.440;11.126;2022-12-20T05:28:28;26.17;;;13.85;;
71095;SDS011;58753;49.440;11.126;2022-12-20T05:30:54;31.08;;;12.65;;
71095;SDS011;58753;49.440;11.126;2022-12-20T05:33:19;31.90;;;14.30;;
71095;SDS011;58753;49.440;11.126;2022-12-20T05:35:45;29.98;;;13.00;;
71095;SDS011;58753;49.440;11.126;2022-12-20T05:38:11;27.00;;;13.47;;
71095;SDS011;58753;49.440;11.126;2022-12-20T05:40:36;28.60;;;12.50;;
71095;SDS011;58753;49.440;11.126;2022-12-20T05:43:01;34.93;;;13.93;;
71095;SDS011;58753;49.440;11.126;2022-12-20T05:45:27;33.92;;;14.05;;
71095;SDS011;58753;49.440;11.126;2022-12-20T05:47:52;28.63;;;13.70;;
71095;SDS011;58753;49.440;11.126;2022-12-20T05:50:18;32.43;;;15.70;;
71095;SDS011;58753;49.440;11.126;2022-12-20T05:52:43;33.67;;;15.00;;
71095;SDS011;58753;49.440;11.126;2022-12-20T05:55:09;31.07;;;14.63;;
71095;SDS011;58753;49.440;11.126;2022-12-20T05:57:34;31.47;;;15.00;;
71095;SDS011;58753;49.440;11.126;2022-12-20T06:00:00;33.78;;;15.75;;
71095;SDS011;58753;49.440;11.126;2022-12-20T06:02:26;32.60;;;16.40;;
71095;SDS011;58753;49.440;11.126;2022-12-20T06:04:52;29.63;;;14.00;;
71095;SDS011;58753;49.440;11.126;2022-12-20T06:07:17;28.07;;;15.40;;
71095;SDS011;58753;49.440;11.126;2022-12-20T06:09:43;28.35;;;15.43;;
71095;SDS011;58753;49.440;11.126;2022-12-20T06:12:09;36.63;;;15.77;;
71095;SDS011;58753;49.440;11.126;2022-12-20T06:14:34;28.17;;;14.80;;
71095;SDS011;58753;49.440;11.126;2022-12-20T06:16:59;33.13;;;14.50;;
71095;SDS011;58753;49.440;11.126;2022-12-20T06:19:25;30.95;;;14.13;;
71095;SDS011;58753;49.440;11.126;2022-12-20T06:21:50;30.80;;;15.00;;
71095;SDS011;58753;49.440;11.126;2022-12-20T06:24:16;30.97;;;15.03;;
71095;SDS011;58753;49.440;11.126;2022-12-20T06:26:41;32.43;;;15.63;;
71095;SDS011;58753;49.440;11.126;2022-12-20T06:29:06;32.47;;;14.13;;
71095;SDS011;58753;49.440;11.126;2022-12-20T06:31:34;31.00;;;15.70;;
71095;SDS011;58753;49.440;11.126;2022-12-20T06:34:00;34.20;;;15.05;;
71095;SDS011;58753;49.440;11.126;2022-12-20T06:36:25;31.77;;;15.03;;
71095;SDS011;58753;49.440;11.126;2022-12-20T06:38:50;34.60;;;14.50;;
71095;SDS011;58753;49.440;11.126;2022-12-20T06:41:16;33.30;;;14.45;;
71095;SDS011;58753;49.440;11.126;2022-12-20T06:43:42;32.20;;;14.63;;
71095;SDS011;58753;49.440;11.126;2022-12-20T06:46:07;30.93;;;13.80;;
71095;SDS011;58753;49.440;11.126;2022-12-20T06:48:32;30.92;;;13.95;;
71095;SDS011;58753;49.440;11.126;2022-12-20T06:50:58;31.10;;;14.80;;
71095;SDS011;58753;49.440;11.126;2022-12-20T06:53:23;35.63;;;15.23;;
71095;SDS011;58753;49.440;11.126;2022-12-20T06:55:49;27.97;;;12.80;;
71095;SDS011;58753;49.440;11.126;2022-12-20T06:58:15;27.73;;;13.32;;
71095;SDS011;58753;49.440;11.126;2022-12-20T07:00:41;36.35;;;15.52;;
71095;SDS011;58753;49.440;11.126;2022-12-20T07:03:06;30.73;;;14.30;;
71095;SDS011;58753;49.440;11.126;2022-12-20T07:05:32;37.83;;;14.97;;
71095;SDS011;58753;49.440;11.126;2022-12-20T07:07:57;30.40;;;14.77;;
71095;SDS011;58753;49.440;11.126;2022-12-20T07:10:22;34.97;;;14.93;;
71095;SDS011;58753;49.440;11.126;2022-12-20T07:12:48;38.23;;;14.97;;
71095;SDS011;58753;49.440;11.126;2022-12-20T07:15:13;30.67;;;13.97;;
71095;SDS011;58753;49.440;11.126;2022-12-20T07:17:39;38.83;;;16.00;;
71095;SDS011;58753;49.440;11.126;2022-12-20T07:20:04;40.53;;;15.90;;
71095;SDS011;58753;49.440;11.126;2022-12-20T07:22:31;31.77;;;14.02;;
71095;SDS011;58753;49.440;11.126;2022-12-20T07:24:58;32.47;;;14.23;;
71095;SDS011;58753;49.440;11.126;2022-12-20T07:27:24;31.23;;;14.77;;
71095;SDS011;58753;49.440;11.126;2022-12-20T07:29:49;31.70;;;13.83;;
71095;SDS011;58753;49.440;11.126;2022-12-20T07:32:15;27.95;;;13.32;;
71095;SDS011;58753;49.440;11.126;2022-12-20T07:34:41;28.00;;;12.80;;
71095;SDS011;58753;49.440;11.126;2022-12-20T07:37:06;28.50;;;13.05;;
71095;SDS011;58753;49.440;11.126;2022-12-20T07:39:32;32.00;;;13.23;;
71095;SDS011;58753;49.440;11.126;2022-12-20T07:41:58;27.25;;;12.93;;
71095;SDS011;58753;49.440;11.126;2022-12-20T07:44:24;31.30;;;13.73;;
71095;SDS011;58753;49.440;11.126;2022-12-20T07:46:49;27.13;;;13.18;;
71095;SDS011;58753;49.440;11.126;2022-12-20T07:49:14;28.70;;;12.73;;
71095;SDS011;58753;49.440;11.126;2022-12-20T07:51:49;26.67;;;12.93;;
71095;SDS011;58753;49.440;11.126;2022-12-20T07:54:22;28.40;;;13.43;;
71095;SDS011;58753;49.440;11.126;2022-12-20T07:56:53;26.55;;;13.05;;
71095;SDS011;58753;49.440;11.126;2022-12-20T07:59:23;26.88;;;14.13;;
71095;SDS011;58753;49.440;11.126;2022-12-20T08:01:52;23.20;;;12.50;;
71095;SDS011;58753;49.440;11.126;2022-12-20T08:04:18;25.77;;;11.80;;
71095;SDS011;58753;49.440;11.126;2022-12-20T08:06:47;28.33;;;11.73;;
71095;SDS011;58753;49.440;11.126;2022-12-20T08:09:14;27.05;;;12.73;;
71095;SDS011;58753;49.440;11.126;2022-12-20T08:11:41;27.73;;;13.32;;
71095;SDS011;58753;49.440;11.126;2022-12-20T08:14:09;26.65;;;12.60;;
71095;SDS011;58753;49.440;11.126;2022-12-20T08:16:35;29.37;;;12.80;;
71095;SDS011;58753;49.440;11.126;2022-12-20T08:19:00;24.08;;;13.23;;
71095;SDS011;58753;49.440;11.126;2022-12-20T08:21:26;28.53;;;12.20;;
71095;SDS011;58753;49.440;11.126;2022-12-20T08:23:51;24.53;;;11.93;;
71095;SDS011;58753;49.440;11.126;2022-12-20T08:26:17;26.67;;;11.40;;
71095;SDS011;58753;49.440;11.126;2022-12-20T08:28:42;26.40;;;12.18;;
71095;SDS011;58753;49.440;11.126;2022-12-20T08:31:08;25.90;;;12.43;;
71095;SDS011;58753;49.440;11.126;2022-12-20T08:33:34;29.77;;;12.65;;
71095;SDS011;58753;49.440;11.126;2022-12-20T08:36:02;24.02;;;12.57;;
71095;SDS011;58753;49.440;11.126;2022-12-20T08:38:30;26.43;;;11.77;;
71095;SDS011;58753;49.440;11.126;2022-12-20T08:41:03;28.00;;;12.30;;
71095;SDS011;58753;49.440;11.126;2022-12-20T08:43:31;27.27;;;12.95;;
71095;SDS011;58753;49.440;11.126;2022-12-20T08:45:58;29.42;;;12.45;;
71095;SDS011;58753;49.440;11.126;2022-12-20T08:48:24;21.60;;;11.65;;
71095;SDS011;58753;49.440;11.126;2022-12-20T08:50:57;25.83;;;12.40;;
71095;SDS011;58753;49.440;11.126;2022-12-20T08:53:25;24.60;;;11.60;;
71095;SDS011;58753;49.440;11.126;2022-12-20T08:55:51;27.65;;;12.18;;
71095;SDS011;58753;49.440;11.126;2022-12-20T08:58:17;26.75;;;12.77;;
71095;SDS011;58753;49.440;11.126;2022-12-20T09:00:42;26.70;;;12.53;;
71095;SDS011;58753;49.440;11.126;2022-12-20T09:03:08;21.70;;;11.33;;
71095;SDS011;58753;49.440;11.126;2022-12-20T09:05:35;25.08;;;12.35;;
71095;SDS011;58753;49.440;11.126;2022-12-20T09:08:01;20.30;;;10.80;;
71095;SDS011;58753;49.440;11.126;2022-12-20T09:10:26;22.55;;;10.50;;
71095;SDS011;58753;49.440;11.126;2022-12-20T09:12:51;25.17;;;11.23;;
71095;SDS011;58753;49.440;11.126;2022-12-20T09:15:17;25.03;;;11.90;;
71095;SDS011;58753;49.440;11.126;2022-12-20T09:17:42;24.80;;;11.90;;
71095;SDS011;58753;49.440;11.126;2022-12-20T09:20:08;24.27;;;11.68;;
71095;SDS011;58753;49.440;11.126;2022-12-20T09:22:33;22.90;;;11.37;;
71095;SDS011;58753;49.440;11.126;2022-12-20T09:24:59;24.87;;;11.03;;
71095;SDS011;58753;49.440;11.126;2022-12-20T09:27:24;22.90;;;10.77;;
71095;SDS011;58753;49.440;11.126;2022-12-20T09:29:49;23.77;;;11.93;;
71095;SDS011;58753;49.440;11.126;2022-12-20T09:32:15;23.13;;;10.40;;
71095;SDS011;58753;49.440;11.126;2022-12-20T09:34:40;23.87;;;10.53;;
71095;SDS011;58753;49.440;11.126;2022-12-20T09:37:05;23.27;;;11.27;;
71095;SDS011;58753;49.440;11.126;2022-12-20T09:39:31;22.92;;;11.18;;
71095;SDS011;58753;49.440;11.126;2022-12-20T09:41:56;25.90;;;11.27;;
71095;SDS011;58753;49.440;11.126;2022-12-20T09:46:55;28.13;;;10.97;;
71095;SDS011;58753;49.440;11.126;2022-12-20T09:49:24;21.08;;;10.57;;
71095;SDS011;58753;49.440;11.126;2022-12-20T09:57:22;22.10;;;10.82;;
71095;SDS011;58753;49.440;11.126;2022-12-20T09:59:54;21.27;;;10.40;;
71095;SDS011;58753;49.440;11.126;2022-12-20T10:02:22;25.98;;;11.05;;
71095;SDS011;58753;49.440;11.126;2022-12-20T10:04:49;24.95;;;11.77;;
71095;SDS011;58753;49.440;11.126;2022-12-20T10:15:45;22.42;;;11.40;;
71095;SDS011;58753;49.440;11.126;2022-12-20T10:21:00;22.10;;;10.30;;
71095;SDS011;58753;49.440;11.126;2022-12-20T10:23:36;24.83;;;10.93;;
71095;SDS011;58753;49.440;11.126;2022-12-20T10:26:10;26.07;;;9.73;;
71095;SDS011;58753;49.440;11.126;2022-12-20T10:28:37;24.27;;;10.65;;
71095;SDS011;58753;49.440;11.126;2022-12-20T10:31:14;21.60;;;11.50;;
71095;SDS011;58753;49.440;11.126;2022-12-20T10:33:40;23.92;;;10.98;;
71095;SDS011;58753;49.440;11.126;2022-12-20T10:36:26;23.98;;;11.00;;
71095;SDS011;58753;49.440;11.126;2022-12-20T10:38:57;20.07;;;9.97;;
71095;SDS011;58753;49.440;11.126;2022-12-20T10:41:45;18.35;;;9.10;;
71095;SDS011;58753;49.440;11.126;2022-12-20T10:44:25;20.75;;;9.60;;
71095;SDS011;58753;49.440;11.126;2022-12-20T10:46:53;20.42;;;10.30;;
71095;SDS011;58753;49.440;11.126;2022-12-20T10:49:22;21.55;;;10.45;;
71095;SDS011;58753;49.440;11.126;2022-12-20T10:51:53;20.23;;;10.93;;
71095;SDS011;58753;49.440;11.126;2022-12-20T10:54:39;23.63;;;10.40;;
71095;SDS011;58753;49.440;11.126;2022-12-20T10:57:12;22.20;;;11.75;;
71095;SDS011;58753;49.440;11.126;2022-12-20T10:59:58;20.50;;;9.82;;
71095;SDS011;58753;49.440;11.126;2022-12-20T11:02:30;23.08;;;11.52;;
71095;SDS011;58753;49.440;11.126;2022-12-20T11:07:34;23.17;;;10.85;;
71095;SDS011;58753;49.440;11.126;2022-12-20T11:10:02;21.40;;;10.77;;
71095;SDS011;58753;49.440;11.126;2022-12-20T11:12:53;19.80;;;9.55;;
71095;SDS011;58753;49.440;11.126;2022-12-20T11:15:20;21.35;;;10.88;;
71095;SDS011;58753;49.440;11.126;2022-12-20T11:20:50;20.58;;;9.70;;
71095;SDS011;58753;49.440;11.126;2022-12-20T11:24:05;21.77;;;11.45;;
71095;SDS011;58753;49.440;11.126;2022-12-20T11:34:43;20.70;;;9.80;;
71095;SDS011;58753;49.440;11.126;2022-12-20T11:37:19;19.80;;;9.02;;
71095;SDS011;58753;49.440;11.126;2022-12-20T11:39:50;21.13;;;9.15;;
71095;SDS011;58753;49.440;11.126;2022-12-20T11:51:03;19.25;;;9.07;;
71095;SDS011;58753;49.440;11.126;2022-12-20T11:56:16;19.40;;;9.23;;
71095;SDS011;58753;49.440;11.126;2022-12-20T12:01:42;19.47;;;9.77;;
71095;SDS011;58753;49.440;11.126;2022-12-20T12:04:14;17.38;;;8.52;;
71095;SDS011;58753;49.440;11.126;2022-12-20T12:06:45;17.10;;;9.63;;
71095;SDS011;58753;49.440;11.126;2022-12-20T12:12:19;18.27;;;9.13;;
71095;SDS011;58753;49.440;11.126;2022-12-20T12:14:55;19.53;;;9.17;;
71095;SDS011;58753;49.440;11.126;2022-12-20T12:17:31;18.38;;;9.48;;
71095;SDS011;58753;49.440;11.126;2022-12-20T12:20:24;20.40;;;9.57;;
71095;SDS011;58753;49.440;11.126;2022-12-20T12:23:04;19.33;;;9.18;;
71095;SDS011;58753;49.440;11.126;2022-12-20T12:25:40;21.15;;;8.70;;
71095;SDS011;58753;49.440;11.126;2022-12-20T12:28:05;20.73;;;9.70;;
71095;SDS011;58753;49.440;11.126;2022-12-20T12:30:35;19.37;;;8.27;;
71095;SDS011;58753;49.440;11.126;2022-12-20T12:33:05;19.60;;;9.68;;
71095;SDS011;58753;49.440;11.126;2022-12-20T12:43:39;19.15;;;8.70;;
71095;SDS011;58753;49.440;11.126;2022-12-20T12:46:21;18.08;;;8.18;;
71095;SDS011;58753;49.440;11.126;2022-12-20T12:49:05;18.20;;;9.75;;
71095;SDS011;58753;49.440;11.126;2022-12-20T12:51:39;22.88;;;10.38;;
71095;SDS011;58753;49.440;11.126;2022-12-20T12:56:36;19.70;;;10.10;;
71095;SDS011;58753;49.440;11.126;2022-12-20T13:11:49;18.58;;;9.68;;
71095;SDS011;58753;49.440;11.126;2022-12-20T13:16:45;18.53;;;9.07;;
71095;SDS011;58753;49.440;11.126;2022-12-20T13:19:16;18.08;;;8.85;;
71095;SDS011;58753;49.440;11.126;2022-12-20T13:21:54;20.70;;;9.88;;
71095;SDS011;58753;49.440;11.126;2022-12-20T13:42:55;22.67;;;8.93;;
71095;SDS011;58753;49.440;11.126;2022-12-20T13:45:22;18.20;;;9.05;;
71095;SDS011;58753;49.440;11.126;2022-12-20T13:47:52;18.73;;;9.82;;
71095;SDS011;58753;49.440;11.126;2022-12-20T13:52:48;23.20;;;8.90;;
71095;SDS011;58753;49.440;11.126;2022-12-20T13:55:30;19.87;;;8.67;;
71095;SDS011;58753;49.440;11.126;2022-12-20T13:58:13;20.02;;;9.60;;
71095;SDS011;58753;49.440;11.126;2022-12-20T14:00:42;20.27;;;10.68;;
71095;SDS011;58753;49.440;11.126;2022-12-20T14:03:29;18.50;;;8.98;;
71095;SDS011;58753;49.440;11.126;2022-12-20T14:05:58;24.05;;;10.00;;
71095;SDS011;58753;49.440;11.126;2022-12-20T14:08:30;20.20;;;9.83;;
71095;SDS011;58753;49.440;11.126;2022-12-20T14:11:08;21.15;;;10.45;;
71095;SDS011;58753;49.440;11.126;2022-12-20T14:13:33;19.05;;;9.73;;
71095;SDS011;58753;49.440;11.126;2022-12-20T14:16:06;20.00;;;9.40;;
71095;SDS011;58753;49.440;11.126;2022-12-20T14:18:38;21.52;;;10.15;;
71095;SDS011;58753;49.440;11.126;2022-12-20T14:21:04;22.13;;;11.02;;
71095;SDS011;58753;49.440;11.126;2022-12-20T14:23:34;19.80;;;10.38;;
71095;SDS011;58753;49.440;11.126;2022-12-20T14:26:03;30.10;;;11.75;;
71095;SDS011;58753;49.440;11.126;2022-12-20T14:34:04;21.52;;;10.68;;
71095;SDS011;58753;49.440;11.126;2022-12-20T14:36:36;21.38;;;9.65;;
71095;SDS011;58753;49.440;11.126;2022-12-20T14:41:46;23.35;;;11.00;;
71095;SDS011;58753;49.440;11.126;2022-12-20T14:44:31;21.83;;;9.60;;
71095;SDS011;58753;49.440;11.126;2022-12-20T14:46:57;21.25;;;10.90;;
71095;SDS011;58753;49.440;11.126;2022-12-20T14:49:24;20.58;;;10.13;;
71095;SDS011;58753;49.440;11.126;2022-12-20T14:54:30;27.15;;;11.52;;
71095;SDS011;58753;49.440;11.126;2022-12-20T14:56:57;22.77;;;10.95;;
71095;SDS011;58753;49.440;11.126;2022-12-20T14:59:24;18.67;;;9.57;;
71095;SDS011;58753;49.440;11.126;2022-12-20T15:01:51;24.63;;;10.45;;
71095;SDS011;58753;49.440;11.126;2022-12-20T15:04:30;22.97;;;10.93;;
71095;SDS011;58753;49.440;11.126;2022-12-20T15:06:58;22.27;;;10.98;;
71095;SDS011;58753;49.440;11.126;2022-12-20T15:09:27;24.58;;;10.93;;
71095;SDS011;58753;49.440;11.126;2022-12-20T15:11:53;21.67;;;11.07;;
71095;SDS011;58753;49.440;11.126;2022-12-20T15:14:26;18.90;;;9.33;;
71095;SDS011;58753;49.440;11.126;2022-12-20T15:17:05;21.77;;;11.60;;
71095;SDS011;58753;49.440;11.126;2022-12-20T15:19:34;21.58;;;10.77;;
71095;SDS011;58753;49.440;11.126;2022-12-20T15:22:00;18.97;;;9.43;;
71095;SDS011;58753;49.440;11.126;2022-12-20T15:24:26;21.98;;;9.80;;
71095;SDS011;58753;49.440;11.126;2022-12-20T15:26:52;19.75;;;9.70;;
71095;SDS011;58753;49.440;11.126;2022-12-20T15:29:25;18.57;;;9.60;;
71095;SDS011;58753;49.440;11.126;2022-12-20T15:31:52;22.67;;;9.82;;
71095;SDS011;58753;49.440;11.126;2022-12-20T15:34:31;21.65;;;9.27;;
71095;SDS011;58753;49.440;11.126;2022-12-20T15:36:59;20.63;;;9.85;;
71095;SDS011;58753;49.440;11.126;2022-12-20T15:39:26;21.27;;;10.07;;
71095;SDS011;58753;49.440;11.126;2022-12-20T15:41:52;23.10;;;9.73;;
71095;SDS011;58753;49.440;11.126;2022-12-20T15:46:45;20.87;;;9.67;;
71095;SDS011;58753;49.440;11.126;2022-12-20T15:49:12;22.27;;;10.02;;
71095;SDS011;58753;49.440;11.126;2022-12-20T15:51:42;22.67;;;10.55;;
71095;SDS011;58753;49.440;11.126;2022-12-20T15:54:14;21.90;;;9.93;;
71095;SDS011;58753;49.440;11.126;2022-12-20T15:56:40;26.23;;;10.68;;
71095;SDS011;58753;49.440;11.126;2022-12-20T15:59:05;22.90;;;10.00;;
71095;SDS011;58753;49.440;11.126;2022-12-20T16:01:34;29.37;;;13.63;;
71095;SDS011;58753;49.440;11.126;2022-12-20T16:04:01;27.00;;;10.70;;
71095;SDS011;58753;49.440;11.126;2022-12-20T16:06:27;24.60;;;12.03;;
71095;SDS011;58753;49.440;11.126;2022-12-20T16:08:52;26.53;;;11.97;;
71095;SDS011;58753;49.440;11.126;2022-12-20T16:11:25;24.10;;;11.57;;
71095;SDS011;58753;49.440;11.126;2022-12-20T16:13:53;23.92;;;11.10;;
71095;SDS011;58753;49.440;11.126;2022-12-20T16:16:21;22.30;;;11.10;;
71095;SDS011;58753;49.440;11.126;2022-12-20T16:18:51;22.20;;;11.60;;
71095;SDS011;58753;49.440;11.126;2022-12-20T16:21:26;22.58;;;11.00;;
71095;SDS011;58753;49.440;11.126;2022-12-20T16:23:58;20.35;;;11.80;;
71095;SDS011;58753;49.440;11.126;2022-12-20T16:26:24;25.42;;;12.07;;